createdAt,value
2022-12-01T00:01:26.187Z,45.48
2022-12-01T00:03:54.904Z,45.43
2022-12-01T00:06:23.119Z,45.34
2022-12-01T00:09:06.893Z,45.32
2022-12-01T00:11:35.471Z,45.10
2022-12-01T00:14:04.056Z,45.06
2022-12-01T00:16:34.129Z,45.24
2022-12-01T00:19:02.213Z,45.06
2022-12-01T00:21:30.255Z,44.97
2022-12-01T00:24:01.045Z,45.41
2022-12-01T00:26:29.187Z,46.55
2022-12-01T00:28:59.170Z,45.81
2022-12-01T00:31:28.370Z,45.62
2022-12-01T00:33:57.766Z,45.35
2022-12-01T00:36:26.145Z,45.45
2022-12-01T00:38:55.607Z,45.12
2022-12-01T00:41:25.198Z,45.14
2022-12-01T00:43:53.716Z,45.20
2022-12-01T00:46:22.040Z,44.89
2022-12-01T00:48:50.171Z,44.82
2022-12-01T00:51:19.416Z,44.77
2022-12-01T00:53:47.442Z,44.78
2022-12-01T00:56:15.972Z,44.79
2022-12-01T00:58:43.836Z,44.75
2022-12-01T01:01:11.857Z,44.59
2022-12-01T01:03:40.023Z,44.40
2022-12-01T01:06:14.316Z,44.46
2022-12-01T01:08:43.635Z,44.51
2022-12-01T01:11:11.785Z,44.35
2022-12-01T01:13:40.171Z,44.32
2022-12-01T01:16:14.792Z,44.37
2022-12-01T01:18:42.762Z,44.45
2022-12-01T01:21:14.178Z,44.17
2022-12-01T01:23:46.011Z,44.23
2022-12-01T01:26:16.467Z,44.14
2022-12-01T01:28:44.632Z,44.32
2022-12-01T01:31:14.765Z,44.13
2022-12-01T01:33:43.275Z,43.99
2022-12-01T01:36:11.774Z,44.02
2022-12-01T01:38:40.006Z,44.03
2022-12-01T01:41:09.838Z,44.02
2022-12-01T01:43:43.142Z,43.97
2022-12-01T01:46:13.520Z,43.80
2022-12-01T01:48:43.122Z,43.83
2022-12-01T01:51:14.452Z,43.88
2022-12-01T01:53:44.371Z,43.79
2022-12-01T01:56:13.697Z,43.79
2022-12-01T01:58:42.593Z,43.69
2022-12-01T02:01:12.898Z,43.71
2022-12-01T02:03:42.696Z,43.65
2022-12-01T02:06:12.390Z,43.59
2022-12-01T02:08:40.434Z,43.74
2022-12-01T02:11:48.518Z,43.60
2022-12-01T02:14:35.194Z,43.55
2022-12-01T02:17:13.485Z,43.59
2022-12-01T02:20:23.596Z,43.53
2022-12-01T02:23:13.524Z,43.47
2022-12-01T02:25:51.597Z,43.36
2022-12-01T02:28:44.444Z,43.32
2022-12-01T02:31:18.551Z,43.30
2022-12-01T02:33:55.410Z,43.23
2022-12-01T02:36:32.498Z,43.31
2022-12-01T02:39:07.156Z,43.29
2022-12-01T02:41:43.744Z,43.34
2022-12-01T02:44:19.801Z,43.36
2022-12-01T02:46:53.928Z,43.22
2022-12-01T02:49:27.075Z,43.22
2022-12-01T02:51:58.307Z,43.24
2022-12-01T02:54:30.025Z,43.14
2022-12-01T02:56:58.368Z,43.11
2022-12-01T02:59:26.472Z,43.10
2022-12-01T03:02:07.230Z,43.04
2022-12-01T03:04:47.255Z,43.17
2022-12-01T03:07:28.162Z,43.11
2022-12-01T03:10:05.957Z,43.01
2022-12-01T03:12:41.453Z,42.96
2022-12-01T03:15:24.941Z,43.00
2022-12-01T03:18:00.621Z,42.93
2022-12-01T03:20:35.311Z,42.90
2022-12-01T03:23:09.691Z,42.79
2022-12-01T03:25:40.961Z,43.00
2022-12-01T03:28:21.103Z,42.76
2022-12-01T03:30:53.693Z,42.77
2022-12-01T03:33:28.323Z,42.82
2022-12-01T03:36:00.804Z,42.83
2022-12-01T03:38:32.006Z,43.46
2022-12-01T03:41:03.109Z,44.01
2022-12-01T03:43:34.976Z,43.76
2022-12-01T03:46:12.996Z,43.50
2022-12-01T03:48:43.409Z,43.25
2022-12-01T03:51:16.956Z,43.27
2022-12-01T03:53:52.597Z,43.29
2022-12-01T03:56:23.336Z,43.50
2022-12-01T03:58:53.813Z,43.55
2022-12-01T04:01:22.422Z,43.71
2022-12-01T04:03:51.794Z,43.87
2022-12-01T04:06:20.064Z,43.68
2022-12-01T04:08:48.341Z,43.54
2022-12-01T04:11:33.805Z,43.59
2022-12-01T04:14:01.726Z,43.84
2022-12-01T04:16:29.788Z,43.58
2022-12-01T04:18:59.157Z,43.42
2022-12-01T04:21:27.148Z,43.53
2022-12-01T04:24:03.553Z,43.35
2022-12-01T04:26:33.277Z,43.29
2022-12-01T04:29:01.755Z,43.60
2022-12-01T04:31:29.857Z,43.49
2022-12-01T04:34:00.013Z,44.01
2022-12-01T04:36:32.313Z,44.76
2022-12-01T04:39:00.682Z,44.69
2022-12-01T04:41:28.952Z,44.77
2022-12-01T04:43:57.208Z,44.67
2022-12-01T04:46:25.844Z,44.58
2022-12-01T04:48:54.028Z,44.62
2022-12-01T04:51:23.667Z,44.66
2022-12-01T04:53:52.023Z,44.37
2022-12-01T04:56:20.426Z,44.36
2022-12-01T04:58:48.531Z,44.27
2022-12-01T05:01:18.728Z,44.19
2022-12-01T05:03:50.256Z,44.20
2022-12-01T05:06:20.691Z,44.04
2022-12-01T05:08:50.678Z,44.12
2022-12-01T05:11:19.285Z,43.98
2022-12-01T05:13:48.459Z,43.91
2022-12-01T05:16:18.261Z,43.91
2022-12-01T05:18:50.288Z,43.76
2022-12-01T05:21:17.885Z,43.75
2022-12-01T05:23:46.112Z,43.79
2022-12-01T05:26:15.565Z,43.81
2022-12-01T05:28:43.531Z,43.80
2022-12-01T05:31:11.566Z,43.67
2022-12-01T05:33:39.681Z,43.69
2022-12-01T05:36:08.101Z,43.65
2022-12-01T05:38:36.010Z,43.65
2022-12-01T05:41:04.023Z,43.61
2022-12-01T05:43:33.301Z,43.44
2022-12-01T05:46:01.330Z,43.52
2022-12-01T05:48:29.374Z,43.52
2022-12-01T05:50:57.317Z,43.68
2022-12-01T05:53:25.243Z,43.38
2022-12-01T05:55:54.503Z,43.34
2022-12-01T05:58:22.544Z,43.42
2022-12-01T06:00:51.859Z,43.32
2022-12-01T06:03:19.968Z,43.33
2022-12-01T06:05:47.940Z,43.14
2022-12-01T06:08:16.000Z,43.25
2022-12-01T06:10:44.404Z,43.40
2022-12-01T06:13:14.878Z,43.12
2022-12-01T06:15:42.870Z,43.22
2022-12-01T06:18:12.455Z,43.18
2022-12-01T06:20:40.394Z,43.14
2022-12-01T06:23:10.587Z,43.11
2022-12-01T06:25:38.483Z,43.10
2022-12-01T06:28:06.449Z,43.12
2022-12-01T06:30:34.378Z,43.00
2022-12-01T06:33:02.322Z,42.98
2022-12-01T06:35:31.624Z,43.03
2022-12-01T06:37:59.599Z,43.01
2022-12-01T06:40:27.566Z,42.90
2022-12-01T06:42:55.487Z,43.05
2022-12-01T06:45:23.563Z,43.00
2022-12-01T06:47:54.532Z,42.86
2022-12-01T06:50:22.487Z,43.02
2022-12-01T06:52:52.801Z,42.88
2022-12-01T06:55:20.835Z,42.77
2022-12-01T06:57:49.041Z,42.81
2022-12-01T07:00:18.265Z,42.68
2022-12-01T07:02:47.274Z,42.53
2022-12-01T07:05:15.409Z,42.67
2022-12-01T07:07:43.380Z,42.61
2022-12-01T07:10:14.225Z,42.46
2022-12-01T07:12:42.413Z,42.45
2022-12-01T07:15:11.124Z,42.34
2022-12-01T07:17:39.093Z,42.41
2022-12-01T07:20:10.164Z,42.40
2022-12-01T07:22:38.782Z,42.48
2022-12-01T07:25:07.806Z,42.39
2022-12-01T07:27:37.172Z,42.26
2022-12-01T07:30:05.956Z,42.43
2022-12-01T07:32:33.954Z,42.21
2022-12-01T07:35:01.882Z,42.41
2022-12-01T07:37:30.034Z,42.49
2022-12-01T07:39:57.965Z,42.37
2022-12-01T07:42:25.930Z,42.16
2022-12-01T07:44:55.258Z,42.32
2022-12-01T07:47:23.295Z,42.27
2022-12-01T07:49:51.401Z,42.20
2022-12-01T07:52:22.344Z,42.24
2022-12-01T07:54:50.182Z,42.28
2022-12-01T07:57:19.554Z,42.13
2022-12-01T07:59:47.786Z,42.05
2022-12-01T08:02:20.311Z,42.00
2022-12-01T08:04:48.272Z,42.05
2022-12-01T08:07:16.236Z,42.01
2022-12-01T08:09:44.949Z,42.14
2022-12-01T08:12:12.953Z,42.02
2022-12-01T08:14:40.901Z,42.02
2022-12-01T08:17:08.792Z,42.02
2022-12-01T08:19:40.102Z,41.98
2022-12-01T08:22:08.012Z,41.82
2022-12-01T08:24:35.973Z,41.93
2022-12-01T08:27:04.108Z,41.95
2022-12-01T08:29:32.125Z,41.93
2022-12-01T08:32:02.346Z,41.99
2022-12-01T08:34:31.994Z,41.89
2022-12-01T08:37:01.308Z,42.00
2022-12-01T08:39:29.465Z,41.89
2022-12-01T08:41:57.386Z,41.87
2022-12-01T08:44:25.326Z,41.88
2022-12-01T08:46:54.516Z,41.89
2022-12-01T08:49:23.055Z,41.76
2022-12-01T08:51:51.070Z,41.86
2022-12-01T08:54:20.384Z,41.76
2022-12-01T08:56:48.423Z,41.84
2022-12-01T08:59:16.498Z,41.72
2022-12-01T09:01:53.284Z,41.82
2022-12-01T09:04:22.955Z,41.72
2022-12-01T09:06:52.518Z,41.82
2022-12-01T09:09:23.967Z,41.94
2022-12-01T09:11:53.356Z,41.58
2022-12-01T09:14:23.212Z,41.79
2022-12-01T09:16:51.794Z,41.68
2022-12-01T09:19:24.662Z,41.77
2022-12-01T09:21:53.774Z,41.58
2022-12-01T09:24:23.280Z,41.76
2022-12-01T09:26:51.566Z,41.77
2022-12-01T09:29:19.474Z,41.68
2022-12-01T09:31:47.453Z,41.76
2022-12-01T09:34:17.834Z,41.62
2022-12-01T09:36:46.868Z,41.50
2022-12-01T09:39:17.081Z,41.66
2022-12-01T09:41:51.011Z,41.60
2022-12-01T09:44:30.844Z,41.69
2022-12-01T09:47:04.556Z,41.69
2022-12-01T09:49:47.571Z,41.48
2022-12-01T09:52:19.788Z,41.53
2022-12-01T09:54:48.613Z,41.56
2022-12-01T09:57:24.623Z,41.45
2022-12-01T09:59:54.058Z,41.57
2022-12-01T10:02:28.826Z,41.40
2022-12-01T10:05:00.413Z,41.47
2022-12-01T10:07:32.500Z,41.66
2022-12-01T10:10:03.027Z,41.61
2022-12-01T10:12:35.156Z,41.57
2022-12-01T10:15:19.554Z,41.57
2022-12-01T10:18:02.266Z,41.15
2022-12-01T10:20:35.394Z,41.46
2022-12-01T10:23:19.499Z,41.39
2022-12-01T10:25:56.994Z,41.40
2022-12-01T10:28:53.834Z,41.34
2022-12-01T10:31:26.761Z,41.31
2022-12-01T10:34:03.174Z,41.27
2022-12-01T10:36:34.223Z,41.28
2022-12-01T10:39:04.667Z,41.27
2022-12-01T10:41:37.121Z,41.29
2022-12-01T10:44:07.959Z,41.21
2022-12-01T10:46:41.941Z,41.31
2022-12-01T10:49:11.851Z,41.33
2022-12-01T10:51:55.064Z,41.39
2022-12-01T10:54:24.175Z,41.38
2022-12-01T10:56:57.029Z,41.21
2022-12-01T10:59:30.402Z,41.20
2022-12-01T11:01:59.676Z,41.34
2022-12-01T11:04:45.353Z,41.36
2022-12-01T11:07:18.527Z,41.24
2022-12-01T11:09:49.387Z,41.22
2022-12-01T11:12:20.562Z,41.17
2022-12-01T11:14:52.181Z,41.19
2022-12-01T11:17:35.990Z,41.28
2022-12-01T11:20:28.582Z,41.25
2022-12-01T11:23:24.406Z,41.29
2022-12-01T11:26:03.148Z,40.93
2022-12-01T11:28:32.248Z,41.14
2022-12-01T11:31:06.602Z,41.43
2022-12-01T11:33:44.760Z,43.00
2022-12-01T11:36:21.715Z,42.33
2022-12-01T11:38:50.255Z,42.29
2022-12-01T11:41:29.813Z,42.38
2022-12-01T11:44:02.004Z,42.47
2022-12-01T11:46:36.995Z,42.29
2022-12-01T11:49:05.105Z,42.50
2022-12-01T11:51:38.408Z,42.55
2022-12-01T11:54:14.032Z,42.35
2022-12-01T11:56:43.037Z,42.44
2022-12-01T11:59:16.817Z,42.35
2022-12-01T12:02:17.438Z,42.47
2022-12-01T12:05:00.075Z,42.33
2022-12-01T12:07:38.799Z,42.40
2022-12-01T12:10:21.419Z,42.14
2022-12-01T12:13:06.427Z,42.21
2022-12-01T12:18:33.316Z,42.17
2022-12-01T12:21:16.161Z,42.39
2022-12-01T12:24:14.515Z,42.06
2022-12-01T12:26:50.695Z,42.14
2022-12-01T12:29:32.396Z,42.09
2022-12-01T12:32:13.260Z,41.96
2022-12-01T12:34:53.417Z,42.01
2022-12-01T12:37:27.520Z,42.11
2022-12-01T12:40:19.053Z,42.19
2022-12-01T12:42:56.713Z,42.08
2022-12-01T12:45:31.983Z,41.92
2022-12-01T12:48:11.219Z,42.11
2022-12-01T12:50:46.003Z,41.94
2022-12-01T12:53:19.267Z,42.18
2022-12-01T12:55:50.940Z,41.94
2022-12-01T12:58:25.094Z,42.19
2022-12-01T13:00:59.345Z,41.86
2022-12-01T13:03:35.617Z,41.81
2022-12-01T13:06:11.107Z,41.63
2022-12-01T13:08:45.873Z,41.57
2022-12-01T13:11:24.051Z,41.70
2022-12-01T13:13:59.236Z,41.97
2022-12-01T13:16:34.555Z,42.98
2022-12-01T13:19:08.501Z,42.61
2022-12-01T13:21:43.113Z,42.52
2022-12-01T13:24:18.502Z,42.47
2022-12-01T13:26:53.992Z,42.47
2022-12-01T13:29:25.498Z,42.57
2022-12-01T13:31:55.146Z,42.70
2022-12-01T13:34:27.408Z,42.66
2022-12-01T13:36:57.192Z,42.79
2022-12-01T13:39:27.934Z,42.82
2022-12-01T13:42:01.207Z,42.69
2022-12-01T13:44:33.327Z,42.63
2022-12-01T13:47:05.038Z,42.74
2022-12-01T13:49:39.853Z,42.71
2022-12-01T13:52:31.853Z,42.75
2022-12-01T13:55:28.900Z,42.59
2022-12-01T13:58:28.097Z,42.64
2022-12-01T14:01:35.131Z,42.63
2022-12-01T14:04:25.326Z,42.68
2022-12-01T14:07:34.606Z,42.78
2022-12-01T14:10:30.610Z,42.68
2022-12-01T14:13:04.347Z,42.50
2022-12-01T14:15:36.133Z,42.67
2022-12-01T14:18:07.305Z,42.77
2022-12-01T14:20:44.749Z,42.58
2022-12-01T14:23:17.392Z,42.69
2022-12-01T14:25:59.972Z,42.53
2022-12-01T14:29:08.731Z,42.49
2022-12-01T14:32:19.473Z,42.67
2022-12-01T14:34:51.432Z,42.62
2022-12-01T14:37:21.965Z,42.86
2022-12-01T14:39:59.183Z,42.47
2022-12-01T14:42:51.261Z,42.52
2022-12-01T14:45:25.454Z,44.24
2022-12-01T14:48:00.849Z,43.85
2022-12-01T14:50:35.559Z,42.47
2022-12-01T14:53:10.205Z,43.17
2022-12-01T14:55:42.999Z,42.88
2022-12-01T14:58:18.205Z,42.83
2022-12-01T15:01:03.151Z,42.63
2022-12-01T15:03:36.342Z,42.55
2022-12-01T15:06:04.574Z,42.44
2022-12-01T15:09:10.408Z,42.35
2022-12-01T15:11:26.536Z,42.35
2022-12-01T15:13:56.757Z,42.26
2022-12-01T15:16:26.799Z,42.13
2022-12-01T15:18:54.826Z,42.12
2022-12-01T15:21:27.269Z,42.24
2022-12-01T15:23:57.635Z,42.18
2022-12-01T15:26:30.450Z,42.03
2022-12-01T15:29:17.108Z,41.96
2022-12-01T15:31:48.221Z,41.74
2022-12-01T15:34:18.602Z,41.88
2022-12-01T15:36:48.385Z,41.64
2022-12-01T15:39:19.379Z,41.82
2022-12-01T15:41:54.097Z,41.76
2022-12-01T15:44:28.412Z,41.76
2022-12-01T15:46:56.622Z,44.38
2022-12-01T15:49:30.084Z,43.40
2022-12-01T15:52:07.708Z,44.35
2022-12-01T15:54:36.582Z,44.65
2022-12-01T15:57:07.171Z,43.25
2022-12-01T15:59:39.503Z,45.00
2022-12-01T16:02:28.135Z,46.51
2022-12-01T16:05:05.213Z,45.10
2022-12-01T16:08:11.503Z,44.77
2022-12-01T16:10:29.491Z,49.20
2022-12-01T16:13:30.482Z,51.70
2022-12-01T16:15:59.719Z,50.89
2022-12-01T16:18:31.913Z,49.92
2022-12-01T16:21:04.675Z,49.39
2022-12-01T16:23:34.239Z,49.11
2022-12-01T16:26:08.489Z,48.85
2022-12-01T16:28:37.048Z,49.27
2022-12-01T16:31:12.618Z,48.62
2022-12-01T16:33:43.180Z,48.58
2022-12-01T16:36:11.105Z,48.38
2022-12-01T16:38:39.038Z,48.35
2022-12-01T16:41:17.463Z,48.15
2022-12-01T16:44:05.367Z,48.07
2022-12-01T16:46:35.185Z,49.75
2022-12-01T16:49:03.237Z,51.03
2022-12-01T16:51:54.387Z,50.73
2022-12-01T16:54:19.389Z,50.65
2022-12-01T16:56:47.316Z,50.27
2022-12-01T16:59:15.422Z,49.87
2022-12-01T17:01:44.870Z,49.91
2022-12-01T17:04:12.881Z,49.50
2022-12-01T17:06:40.992Z,49.46
2022-12-01T17:09:08.884Z,49.17
2022-12-01T17:11:36.837Z,48.89
2022-12-01T17:14:04.782Z,48.96
2022-12-01T17:16:32.747Z,48.88
2022-12-01T17:19:02.887Z,48.63
2022-12-01T17:21:31.299Z,48.72
2022-12-01T17:23:59.328Z,48.69
2022-12-01T17:26:27.286Z,48.68
2022-12-01T17:28:56.012Z,48.39
2022-12-01T17:31:24.240Z,48.68
2022-12-01T17:33:52.509Z,48.89
2022-12-01T17:36:21.988Z,48.62
2022-12-01T17:38:50.526Z,48.68
2022-12-01T17:41:21.959Z,48.48
2022-12-01T17:43:50.015Z,48.51
2022-12-01T17:46:18.691Z,48.23
2022-12-01T17:48:47.796Z,48.28
2022-12-01T17:51:16.841Z,48.09
2022-12-01T17:53:46.139Z,48.15
2022-12-01T17:56:16.594Z,48.14
2022-12-01T17:58:44.977Z,48.30
2022-12-01T18:01:15.884Z,48.27
2022-12-01T18:03:44.500Z,48.26
2022-12-01T18:06:13.420Z,49.27
2022-12-01T18:08:41.937Z,49.32
2022-12-01T18:11:14.039Z,49.03
2022-12-01T18:13:43.759Z,48.84
2022-12-01T18:16:14.941Z,49.24
2022-12-01T18:18:43.447Z,48.75
2022-12-01T18:21:13.588Z,48.17
2022-12-01T18:23:41.646Z,48.54
2022-12-01T18:26:16.100Z,48.60
2022-12-01T18:28:45.180Z,47.87
2022-12-01T18:31:16.198Z,47.49
2022-12-01T18:33:46.113Z,47.60
2022-12-01T18:36:17.171Z,47.50
2022-12-01T18:38:46.857Z,47.31
2022-12-01T18:41:17.120Z,47.29
2022-12-01T18:43:45.643Z,47.06
2022-12-01T18:46:15.196Z,46.98
2022-12-01T18:48:46.663Z,46.82
2022-12-01T18:51:15.121Z,46.86
2022-12-01T18:53:45.391Z,46.98
2022-12-01T18:56:15.396Z,46.88
2022-12-01T18:58:44.924Z,46.69
2022-12-01T19:01:21.135Z,46.91
2022-12-01T19:03:49.192Z,46.76
2022-12-01T19:06:17.629Z,46.83
2022-12-01T19:08:45.669Z,46.63
2022-12-01T19:11:13.994Z,46.54
2022-12-01T19:13:42.340Z,46.45
2022-12-01T19:16:13.515Z,46.56
2022-12-01T19:18:41.686Z,46.68
2022-12-01T19:21:11.832Z,47.09
2022-12-01T19:23:40.248Z,47.25
2022-12-01T19:26:11.274Z,46.78
2022-12-01T19:28:40.375Z,46.41
2022-12-01T19:31:09.882Z,46.87
2022-12-01T19:33:39.810Z,47.75
2022-12-01T19:36:09.919Z,47.20
2022-12-01T19:38:38.167Z,47.45
2022-12-01T19:41:07.315Z,47.35
2022-12-01T19:43:36.061Z,47.02
2022-12-01T19:46:06.746Z,46.70
2022-12-01T19:48:35.170Z,46.85
2022-12-01T19:51:05.212Z,46.69
2022-12-01T19:53:34.274Z,46.66
2022-12-01T19:56:03.220Z,46.50
2022-12-01T19:58:34.195Z,46.33
2022-12-01T20:01:06.116Z,46.53
2022-12-01T20:03:34.225Z,46.37
2022-12-01T20:06:05.042Z,46.41
2022-12-01T20:08:36.185Z,46.33
2022-12-01T20:11:04.810Z,46.39
2022-12-01T20:13:33.307Z,46.29
2022-12-01T20:16:05.153Z,46.32
2022-12-01T20:18:33.546Z,46.20
2022-12-01T20:21:07.650Z,46.33
2022-12-01T20:23:36.392Z,46.23
2022-12-01T20:26:06.981Z,46.20
2022-12-01T20:28:36.156Z,46.11
2022-12-01T20:31:05.350Z,46.21
2022-12-01T20:33:33.271Z,46.05
2022-12-01T20:36:01.251Z,45.99
2022-12-01T20:38:30.886Z,46.07
2022-12-01T20:41:00.611Z,46.09
2022-12-01T20:43:29.679Z,46.12
2022-12-01T20:45:57.846Z,46.36
2022-12-01T20:48:26.738Z,46.23
2022-12-01T20:50:54.659Z,46.14
2022-12-01T20:53:23.072Z,46.12
2022-12-01T20:55:53.892Z,46.20
2022-12-01T20:58:21.807Z,46.36
2022-12-01T21:00:50.098Z,46.17
2022-12-01T21:03:20.345Z,46.04
2022-12-01T21:05:48.369Z,46.10
2022-12-01T21:08:16.418Z,45.84
2022-12-01T21:10:46.831Z,45.91
2022-12-01T21:13:38.076Z,45.79
2022-12-01T21:16:12.496Z,45.97
2022-12-01T21:18:50.285Z,45.87
2022-12-01T21:21:24.775Z,45.70
2022-12-01T21:24:14.203Z,45.49
2022-12-01T21:26:46.708Z,45.59
2022-12-01T21:29:24.943Z,45.69
2022-12-01T21:32:01.132Z,45.65
2022-12-01T21:34:30.098Z,45.56
2022-12-01T21:37:02.027Z,45.64
2022-12-01T21:39:31.338Z,45.58
2022-12-01T21:42:12.597Z,45.55
2022-12-01T21:44:41.913Z,45.47
2022-12-01T21:47:20.830Z,45.42
2022-12-01T21:49:52.058Z,45.42
2022-12-01T21:52:22.229Z,45.65
2022-12-01T21:54:50.932Z,46.86
2022-12-01T21:57:42.352Z,46.12
2022-12-01T22:00:29.719Z,46.80
2022-12-01T22:03:36.054Z,46.28
2022-12-01T22:06:31.960Z,46.10
2022-12-01T22:09:02.969Z,46.16
2022-12-01T22:11:32.164Z,45.90
2022-12-01T22:14:14.014Z,45.83
2022-12-01T22:16:45.193Z,45.90
2022-12-01T22:19:25.411Z,46.09
2022-12-01T22:22:01.682Z,45.97
2022-12-01T22:24:40.661Z,45.89
2022-12-01T22:27:28.808Z,45.94
2022-12-01T22:30:01.979Z,45.94
2022-12-01T22:32:37.835Z,45.94
2022-12-01T22:35:29.714Z,45.76
2022-12-01T22:38:13.461Z,45.73
2022-12-01T22:40:44.175Z,45.68
2022-12-01T22:43:25.863Z,45.71
2022-12-01T22:46:11.627Z,45.50
2022-12-01T22:48:42.653Z,45.54
2022-12-01T22:51:24.549Z,46.03
2022-12-01T22:53:58.615Z,46.68
2022-12-01T22:56:37.824Z,46.46
2022-12-01T22:59:19.849Z,46.20
2022-12-01T23:01:50.915Z,46.18
2022-12-01T23:04:26.646Z,45.70
2022-12-01T23:07:01.625Z,45.64
2022-12-01T23:09:35.382Z,45.61
2022-12-01T23:12:17.611Z,45.38
2022-12-01T23:14:48.788Z,45.35
2022-12-01T23:17:20.683Z,45.07
2022-12-01T23:19:51.000Z,45.22
2022-12-01T23:22:19.025Z,45.24
2022-12-01T23:24:47.315Z,44.71
2022-12-01T23:27:18.697Z,45.03
2022-12-01T23:29:46.639Z,44.84
2022-12-01T23:32:16.908Z,44.91
2022-12-01T23:34:44.821Z,44.75
2022-12-01T23:37:32.906Z,44.70
2022-12-01T23:40:01.760Z,44.70
2022-12-01T23:42:29.739Z,44.53
2022-12-01T23:44:57.889Z,44.66
2022-12-01T23:47:28.055Z,44.67
2022-12-01T23:50:00.015Z,44.38
2022-12-01T23:52:36.224Z,44.34
2022-12-01T23:55:17.637Z,44.33
2022-12-01T23:57:45.561Z,45.63
